Time;durP1;ratioP1;P1;durP2;ratioP2;P2;SDS_P1;SDS_P2;PMS_P1;PMS_P2;Temp;Humidity;BMP_temperature;BMP_pressure;BME280_temperature;BME280_humidity;BME280_pressure;Samples;Min_cycle;Max_cycle;Signal;HPM_P1;HPM_P2
2021/09/23 00:01:14;;;;;;;0.00;0.00;;;10.70;75.30;;;;;;5056330;28;20025;-77
2021/09/23 00:06:29;;;;;;;0.00;0.00;;;10.80;75.30;;;;;;5031068;28;20421;-76
2021/09/23 00:08:54;;;;;;;0.00;0.00;;;10.80;75.30;;;;;;5037266;28;20025;-76
2021/09/23 00:11:20;;;;;;;0.00;0.00;;;10.80;75.30;;;;;;5070507;28;20025;-76
2021/09/23 00:13:46;;;;;;;0.00;0.00;;;10.80;75.30;;;;;;5076031;28;20028;-77
2021/09/23 00:16:12;;;;;;;0.00;0.00;;;10.80;75.40;;;;;;5075942;28;20029;-76
2021/09/23 00:18:38;;;;;;;0.00;0.00;;;10.80;75.40;;;;;;5075739;28;20069;-76
2021/09/23 00:21:06;;;;;;;0.00;0.00;;;10.70;75.30;;;;;;5075469;28;20024;-76
2021/09/23 00:23:33;;;;;;;0.00;0.00;;;10.70;75.40;;;;;;5076067;28;20049;-76
2021/09/23 00:25:59;;;;;;;0.00;0.00;;;10.70;75.50;;;;;;5075807;28;20024;-76
2021/09/23 00:28:24;;;;;;;0.00;0.00;;;10.70;75.40;;;;;;5057926;28;20514;-75
2021/09/23 00:30:50;;;;;;;0.00;0.00;;;10.70;75.50;;;;;;5075433;28;20116;-77
2021/09/23 00:33:16;;;;;;;0.00;0.00;;;10.70;75.50;;;;;;5075456;28;20082;-76
2021/09/23 00:35:42;;;;;;;0.00;0.00;;;10.70;75.60;;;;;;5075671;28;20134;-75
2021/09/23 00:38:08;;;;;;;0.00;0.00;;;10.70;75.60;;;;;;5075365;28;20032;-75
2021/09/23 00:40:34;;;;;;;0.00;0.00;;;10.70;75.60;;;;;;5075729;28;20457;-77
2021/09/23 00:43:00;;;;;;;0.00;0.00;;;10.70;75.60;;;;;;5074637;28;20025;-76
2021/09/23 00:45:26;;;;;;;0.00;0.00;;;10.60;75.50;;;;;;5075659;28;20035;-77
2021/09/23 00:47:52;;;;;;;0.00;0.00;;;10.60;75.70;;;;;;5075168;28;20108;-77
2021/09/23 00:50:20;;;;;;;0.00;0.00;;;10.60;75.80;;;;;;5075714;28;20028;-76
2021/09/23 00:52:47;;;;;;;0.00;0.00;;;10.60;75.90;;;;;;5075501;28;20020;-76
2021/09/23 00:55:13;;;;;;;0.00;0.00;;;10.60;76.10;;;;;;5075893;28;20032;-75
2021/09/23 00:57:40;;;;;;;0.00;0.00;;;10.60;75.90;;;;;;5075376;28;20382;-77
2021/09/23 01:00:09;;;;;;;0.00;0.00;;;10.60;76.00;;;;;;5075204;28;20036;-76
2021/09/23 01:02:35;;;;;;;0.00;0.00;;;10.60;76.00;;;;;;5075095;28;20070;-75
2021/09/23 01:05:01;;;;;;;0.00;0.00;;;10.60;76.00;;;;;;5075080;28;20116;-76
2021/09/23 01:07:27;;;;;;;0.00;0.00;;;10.60;76.70;;;;;;5075084;28;20115;-76
2021/09/23 01:09:54;;;;;;;0.00;0.00;;;10.60;76.20;;;;;;5075054;28;20024;-76
2021/09/23 01:12:22;;;;;;;0.00;0.00;;;10.70;76.10;;;;;;5075618;28;20024;-76
2021/09/23 01:14:49;;;;;;;0.00;0.00;;;10.70;76.20;;;;;;5074975;28;20032;-76
2021/09/23 01:17:15;;;;;;;0.00;0.00;;;10.70;76.20;;;;;;5075592;28;20353;-76
2021/09/23 01:19:43;;;;;;;0.00;0.00;;;10.60;76.20;;;;;;5074670;28;20033;-76
2021/09/23 01:22:08;;;;;;;0.00;0.00;;;10.60;76.30;;;;;;5074830;28;20082;-77
2021/09/23 01:24:38;;;;;;;0.00;0.00;;;10.60;76.40;;;;;;5074350;28;20404;-76
2021/09/23 01:27:04;;;;;;;0.00;0.00;;;10.60;76.40;;;;;;5074732;28;20035;-76
2021/09/23 01:29:30;;;;;;;0.00;0.00;;;10.70;76.50;;;;;;5074404;28;20526;-76
2021/09/23 01:31:57;;;;;;;0.00;0.00;;;10.70;76.50;;;;;;5074605;28;20016;-76
2021/09/23 01:34:23;;;;;;;0.00;0.00;;;10.70;76.40;;;;;;5073514;28;20035;-76
2021/09/23 01:36:48;;;;;;;0.00;0.00;;;10.80;76.40;;;;;;5074454;28;20024;-76
2021/09/23 01:39:19;;;;;;;0.00;0.00;;;10.80;76.30;;;;;;5056504;28;20069;-77
2021/09/23 01:41:44;;;;;;;0.00;0.00;;;10.80;76.30;;;;;;5074300;28;20024;-76
2021/09/23 01:44:10;;;;;;;0.00;0.00;;;10.80;76.30;;;;;;5073808;28;20028;-76
2021/09/23 01:46:36;;;;;;;0.00;0.00;;;10.80;76.30;;;;;;5074345;28;20459;-76
2021/09/23 01:49:02;;;;;;;0.00;0.00;;;10.80;76.30;;;;;;5073836;28;20023;-76
2021/09/23 01:51:27;;;;;;;0.00;0.00;;;10.80;76.40;;;;;;5074261;28;20044;-76
2021/09/23 01:53:53;;;;;;;0.00;0.00;;;10.80;76.50;;;;;;5074443;28;20028;-76
2021/09/23 01:56:19;;;;;;;0.00;0.00;;;10.70;76.30;;;;;;5074264;28;20029;-76
2021/09/23 01:58:44;;;;;;;0.00;0.00;;;10.70;76.50;;;;;;5074277;28;20511;-76
2021/09/23 02:01:10;;;;;;;0.00;0.00;;;10.70;76.60;;;;;;5073471;28;20021;-77
2021/09/23 02:03:36;;;;;;;0.00;0.00;;;10.70;76.60;;;;;;5074366;28;20381;-76
2021/09/23 02:06:01;;;;;;;0.00;0.00;;;10.70;76.70;;;;;;5073664;28;20028;-75
2021/09/23 02:08:27;;;;;;;0.00;0.00;;;10.70;76.70;;;;;;5073917;28;20029;-76
2021/09/23 02:10:53;;;;;;;0.00;0.00;;;10.60;76.70;;;;;;5073477;28;20033;-76
2021/09/23 02:13:18;;;;;;;0.00;0.00;;;10.60;76.80;;;;;;5055976;28;20036;-76
2021/09/23 02:15:44;;;;;;;0.00;0.00;;;10.60;77.00;;;;;;5074066;28;20020;-76
2021/09/23 02:18:10;;;;;;;0.00;0.00;;;10.60;77.10;;;;;;5073888;28;20032;-75
2021/09/23 02:20:35;;;;;;;0.00;0.00;;;10.60;77.70;;;;;;5069067;28;20112;-76
2021/09/23 02:23:01;;;;;;;0.00;0.00;;;10.60;77.10;;;;;;5053606;28;20124;-76
2021/09/23 02:25:27;;;;;;;0.00;0.00;;;10.60;77.20;;;;;;5053782;28;20037;-76
2021/09/23 02:27:52;;;;;;;0.00;0.00;;;10.60;77.20;;;;;;5053327;28;20358;-75
2021/09/23 02:30:18;;;;;;;0.00;0.00;;;10.60;77.30;;;;;;5051929;28;20053;-76
2021/09/23 02:32:44;;;;;;;0.00;0.00;;;10.60;77.30;;;;;;5053725;28;20115;-76
2021/09/23 02:35:10;;;;;;;0.00;0.00;;;10.50;77.40;;;;;;5053454;28;20434;-76
2021/09/23 02:37:37;;;;;;;0.00;0.00;;;10.50;77.30;;;;;;5053839;28;20029;-77
2021/09/23 02:40:04;;;;;;;0.00;0.00;;;10.50;77.40;;;;;;5053338;28;20462;-77
2021/09/23 02:42:30;;;;;;;0.00;0.00;;;10.50;77.30;;;;;;5053210;28;20040;-77
2021/09/23 02:44:55;;;;;;;0.00;0.00;;;10.50;78.00;;;;;;5052125;28;20037;-76
2021/09/23 02:47:26;;;;;;;0.00;0.00;;;10.50;77.40;;;;;;5053488;28;20037;-76
2021/09/23 02:49:52;;;;;;;0.00;0.00;;;10.50;77.50;;;;;;5053546;28;20063;-76
2021/09/23 02:52:18;;;;;;;0.00;0.00;;;10.50;77.60;;;;;;5053489;28;20021;-75
2021/09/23 02:54:44;;;;;;;0.00;0.00;;;10.50;77.70;;;;;;5053182;28;20025;-75
2021/09/23 02:57:10;;;;;;;0.00;0.00;;;10.50;77.70;;;;;;5053321;28;20079;-76
2021/09/23 02:59:37;;;;;;;0.00;0.00;;;10.50;77.70;;;;;;5053635;28;20033;-76
2021/09/23 03:02:02;;;;;;;0.00;0.00;;;10.60;77.80;;;;;;5053369;28;20017;-76
2021/09/23 03:04:28;;;;;;;0.00;0.00;;;10.50;77.80;;;;;;5053309;28;20033;-75
2021/09/23 03:06:54;;;;;;;0.00;0.00;;;10.50;77.80;;;;;;5053248;28;20026;-78
2021/09/23 03:09:20;;;;;;;0.00;0.00;;;10.50;77.80;;;;;;5052065;28;20095;-77
2021/09/23 03:11:45;;;;;;;0.00;0.00;;;10.50;78.00;;;;;;5053046;28;20032;-76
2021/09/23 03:14:11;;;;;;;0.00;0.00;;;10.50;78.00;;;;;;5053361;28;20029;-76
2021/09/23 03:16:38;;;;;;;0.00;0.00;;;10.60;78.20;;;;;;5053707;28;20025;-75
2021/09/23 03:19:04;;;;;;;0.00;0.00;;;10.60;78.20;;;;;;5051875;28;20025;-76
2021/09/23 03:21:30;;;;;;;0.00;0.00;;;10.60;78.10;;;;;;5052515;28;20036;-76
2021/09/23 03:23:55;;;;;;;0.00;0.00;;;10.60;78.10;;;;;;5053366;28;20385;-77
2021/09/23 03:26:21;;;;;;;0.00;0.00;;;10.60;78.20;;;;;;5053208;28;20024;-76
2021/09/23 03:28:47;;;;;;;0.00;0.00;;;10.60;78.20;;;;;;5052838;28;20111;-76
2021/09/23 03:31:13;;;;;;;0.00;0.00;;;10.60;78.20;;;;;;5053072;28;20033;-77
2021/09/23 03:33:39;;;;;;;0.00;0.00;;;10.70;78.30;;;;;;5052004;28;20121;-76
2021/09/23 03:36:05;;;;;;;0.00;0.00;;;10.70;78.40;;;;;;5053175;28;20118;-78
2021/09/23 03:38:31;;;;;;;0.00;0.00;;;10.70;78.40;;;;;;5052988;28;20083;-76
2021/09/23 03:40:57;;;;;;;0.00;0.00;;;10.70;78.30;;;;;;5051458;28;20035;-78
2021/09/23 03:43:23;;;;;;;0.00;0.00;;;10.70;78.40;;;;;;5053045;28;20037;-76
2021/09/23 03:45:50;;;;;;;0.00;0.00;;;10.70;78.60;;;;;;5056599;28;20078;-76
2021/09/23 03:48:20;;;;;;;0.00;0.00;;;10.70;78.80;;;;;;5056320;28;20036;-76
2021/09/23 03:50:46;;;;;;;0.00;0.00;;;10.70;78.90;;;;;;5056480;28;20350;-75
2021/09/23 03:53:13;;;;;;;0.00;0.00;;;10.80;79.00;;;;;;5076113;28;20078;-75
2021/09/23 03:55:39;;;;;;;0.00;0.00;;;10.80;79.50;;;;;;5076107;28;20039;-75
2021/09/23 03:58:04;;;;;;;0.00;0.00;;;10.80;78.80;;;;;;5075996;28;20029;-77
2021/09/23 04:00:30;;;;;;;0.00;0.00;;;10.80;78.80;;;;;;5076434;28;20033;-77
2021/09/23 04:03:03;;;;;;;0.00;0.00;;;10.80;78.80;;;;;;5069288;28;20028;-76
2021/09/23 04:05:29;;;;;;;0.00;0.00;;;10.80;78.70;;;;;;5056490;28;20104;-76
2021/09/23 04:07:55;;;;;;;0.00;0.00;;;10.70;78.70;;;;;;5055092;28;20029;-76
2021/09/23 04:10:22;;;;;;;0.00;0.00;;;10.70;78.80;;;;;;5055666;28;20476;-76
2021/09/23 04:12:49;;;;;;;0.00;0.00;;;10.60;78.90;;;;;;5054808;28;20028;-76
2021/09/23 04:15:15;;;;;;;0.00;0.00;;;10.60;79.10;;;;;;5055596;28;20037;-78
2021/09/23 04:17:41;;;;;;;0.00;0.00;;;10.60;79.30;;;;;;5055792;28;20035;-76
2021/09/23 04:20:07;;;;;;;0.00;0.00;;;10.60;79.30;;;;;;5054350;28;20389;-76
2021/09/23 04:22:33;;;;;;;0.00;0.00;;;10.60;79.40;;;;;;5055969;28;20029;-76
2021/09/23 04:24:59;;;;;;;0.00;0.00;;;10.60;79.60;;;;;;5055637;28;20116;-79
2021/09/23 04:27:25;;;;;;;0.00;0.00;;;10.70;79.60;;;;;;5056105;28;20021;-77
2021/09/23 04:29:52;;;;;;;0.00;0.00;;;10.70;79.70;;;;;;5054565;28;20087;-76
2021/09/23 04:32:18;;;;;;;0.00;0.00;;;10.70;79.40;;;;;;5054222;28;20527;-76
2021/09/23 04:34:43;;;;;;;0.00;0.00;;;10.80;79.50;;;;;;5055822;28;20025;-76
2021/09/23 04:37:09;;;;;;;0.00;0.00;;;10.80;79.50;;;;;;5054232;28;20032;-77
2021/09/23 04:39:35;;;;;;;0.00;0.00;;;10.80;79.50;;;;;;5055503;28;20061;-76
2021/09/23 04:42:01;;;;;;;0.00;0.00;;;10.80;79.50;;;;;;5055616;28;20100;-78
2021/09/23 04:44:27;;;;;;;0.00;0.00;;;10.90;79.30;;;;;;5055316;28;20435;-78
2021/09/23 04:46:53;;;;;;;0.00;0.00;;;10.90;79.20;;;;;;5055236;28;20029;-77
2021/09/23 04:49:19;;;;;;;0.00;0.00;;;10.90;79.20;;;;;;5045815;28;20090;-78
2021/09/23 04:51:47;;;;;;;0.00;0.00;;;10.90;79.30;;;;;;5043731;28;20473;-78
2021/09/23 04:54:13;;;;;;;0.00;0.00;;;10.90;79.30;;;;;;5043723;28;20033;-77
2021/09/23 04:56:39;;;;;;;0.00;0.00;;;10.90;79.20;;;;;;5051291;28;20029;-76
2021/09/23 04:59:05;;;;;;;0.00;0.00;;;10.90;79.30;;;;;;5054706;28;20029;-77
2021/09/23 05:01:30;;;;;;;0.00;0.00;;;11.00;79.30;;;;;;5054974;28;20381;-77
2021/09/23 05:03:56;;;;;;;0.00;0.00;;;11.10;79.40;;;;;;5037038;28;20037;-77
2021/09/23 05:06:22;;;;;;;0.00;0.00;;;11.10;79.20;;;;;;5054431;28;20037;-78
2021/09/23 05:08:48;;;;;;;0.00;0.00;;;11.20;79.10;;;;;;5055022;28;20415;-76
2021/09/23 05:11:13;;;;;;;0.00;0.00;;;11.20;79.00;;;;;;5054816;28;20031;-76
2021/09/23 05:13:39;;;;;;;0.00;0.00;;;11.20;78.80;;;;;;5054458;28;20037;-76
2021/09/23 05:16:05;;;;;;;0.00;0.00;;;11.30;78.70;;;;;;5054738;28;20021;-77
2021/09/23 05:18:31;;;;;;;0.00;0.00;;;11.30;78.50;;;;;;5054910;28;20079;-77
2021/09/23 05:20:56;;;;;;;0.00;0.00;;;11.30;78.50;;;;;;5054825;28;20044;-77
2021/09/23 05:23:22;;;;;;;0.00;0.00;;;11.40;78.30;;;;;;5048132;28;20056;-78
2021/09/23 05:25:48;;;;;;;0.00;0.00;;;11.50;78.20;;;;;;5025516;28;20434;-78
2021/09/23 05:28:14;;;;;;;0.00;0.00;;;11.50;78.00;;;;;;5048774;28;20053;-77
2021/09/23 05:30:40;;;;;;;0.00;0.00;;;11.60;77.80;;;;;;5036786;28;20064;-77
2021/09/23 05:33:08;;;;;;;0.00;0.00;;;11.70;77.60;;;;;;5054417;28;20029;-77
2021/09/23 05:35:34;;;;;;;0.00;0.00;;;11.70;77.40;;;;;;5036531;28;20465;-76
2021/09/23 05:38:00;;;;;;;0.00;0.00;;;11.70;77.30;;;;;;5054523;28;20036;-76
2021/09/23 05:40:26;;;;;;;0.00;0.00;;;11.80;77.10;;;;;;5054207;28;20029;-77
2021/09/23 05:42:52;;;;;;;0.00;0.00;;;11.80;76.70;;;;;;5054159;28;20050;-77
2021/09/23 05:45:18;;;;;;;0.00;0.00;;;11.80;76.40;;;;;;5053970;28;20035;-75
2021/09/23 05:47:44;;;;;;;0.00;0.00;;;11.80;76.20;;;;;;5054142;28;20081;-75
2021/09/23 05:50:11;;;;;;;0.00;0.00;;;11.70;76.40;;;;;;5053775;28;20465;-77
2021/09/23 05:52:36;;;;;;;0.00;0.00;;;11.70;76.40;;;;;;5054228;28;20388;-77
2021/09/23 05:55:04;;;;;;;0.00;0.00;;;11.70;76.50;;;;;;5054310;28;20136;-76
2021/09/23 05:57:33;;;;;;;0.00;0.00;;;11.70;76.50;;;;;;5036635;28;20025;-77
2021/09/23 06:00:00;;;;;;;0.00;0.00;;;11.70;76.40;;;;;;5036890;28;20090;-77
2021/09/23 06:02:26;;;;;;;0.00;0.00;;;11.70;76.30;;;;;;5053791;28;20108;-77
2021/09/23 06:04:51;;;;;;;0.00;0.00;;;11.70;76.30;;;;;;5061914;28;20111;-77
2021/09/23 06:07:17;;;;;;;0.00;0.00;;;11.70;76.50;;;;;;5073338;28;20376;-77
2021/09/23 06:09:43;;;;;;;0.00;0.00;;;11.70;76.70;;;;;;5068922;28;20031;-76
2021/09/23 06:12:09;;;;;;;0.00;0.00;;;11.80;76.50;;;;;;5052448;28;20124;-78
2021/09/23 06:14:35;;;;;;;0.00;0.00;;;11.90;76.20;;;;;;5053484;28;20439;-77
2021/09/23 06:17:01;;;;;;;0.00;0.00;;;11.90;76.10;;;;;;5053680;28;20076;-76
2021/09/23 06:19:27;;;;;;;0.00;0.00;;;12.00;75.90;;;;;;5053703;28;20033;-76
2021/09/23 06:21:52;;;;;;;0.00;0.00;;;12.10;75.60;;;;;;5052352;28;20354;-80
2021/09/23 06:24:18;;;;;;;0.00;0.00;;;12.20;75.60;;;;;;5055178;28;20056;-76
2021/09/23 06:26:45;;;;;;;0.00;0.00;;;12.40;75.50;;;;;;5073720;28;20408;-77
2021/09/23 06:29:11;;;;;;;0.00;0.00;;;12.50;75.90;;;;;;5073222;28;20032;-76
2021/09/23 06:31:37;;;;;;;0.00;0.00;;;12.70;74.90;;;;;;5073499;28;20377;-78
2021/09/23 06:34:03;;;;;;;0.00;0.00;;;12.80;74.20;;;;;;5073539;28;20028;-77
2021/09/23 06:36:28;;;;;;;0.00;0.00;;;12.80;73.80;;;;;;5055188;28;20032;-77
2021/09/23 06:38:54;;;;;;;0.00;0.00;;;12.90;73.50;;;;;;5073219;28;20031;-78
2021/09/23 06:41:21;;;;;;;0.00;0.00;;;12.90;73.40;;;;;;5073150;28;20097;-76
2021/09/23 06:43:49;;;;;;;0.00;0.00;;;13.00;72.90;;;;;;5073416;28;20024;-76
2021/09/23 06:46:17;;;;;;;0.00;0.00;;;13.00;72.50;;;;;;5073080;28;20028;-76
2021/09/23 06:48:42;;;;;;;0.00;0.00;;;12.90;72.30;;;;;;5073228;28;20056;-78
2021/09/23 06:51:08;;;;;;;0.05;0.00;;;12.90;72.40;;;;;;5055455;28;20031;-76
2021/09/23 06:53:34;;;;;;;0.00;0.00;;;12.80;72.30;;;;;;5073538;28;20533;-77
2021/09/23 06:59:09;;;;;;;0.00;0.00;;;12.70;72.40;;;;;;5051032;28;20040;-77
2021/09/23 07:01:37;;;;;;;0.00;0.00;;;12.80;72.60;;;;;;5050956;28;20124;-77
2021/09/23 07:04:03;;;;;;;0.00;0.00;;;12.80;72.70;;;;;;5051932;28;20031;-76
2021/09/23 07:06:29;;;;;;;0.00;0.00;;;12.80;72.50;;;;;;5052872;28;20150;-76
2021/09/23 07:08:55;;;;;;;0.00;0.00;;;12.80;72.30;;;;;;5041051;28;20534;-78
2021/09/23 07:11:21;;;;;;;0.00;0.00;;;12.90;72.50;;;;;;5051584;28;20033;-77
2021/09/23 07:13:47;;;;;;;0.00;0.00;;;12.80;72.10;;;;;;5053062;28;20036;-77
2021/09/23 07:16:13;;;;;;;0.00;0.00;;;12.90;72.20;;;;;;5052812;28;20470;-79
2021/09/23 07:18:39;;;;;;;0.00;0.00;;;12.90;72.10;;;;;;5056861;28;20060;-77
2021/09/23 07:21:07;;;;;;;0.00;0.00;;;13.10;72.20;;;;;;5057171;28;20115;-76
2021/09/23 07:23:33;;;;;;;0.00;0.00;;;13.20;72.00;;;;;;5056405;28;20056;-77
2021/09/23 07:25:59;;;;;;;0.00;0.00;;;13.30;71.50;;;;;;5056523;28;20481;-76
2021/09/23 07:28:25;;;;;;;0.00;0.00;;;13.40;71.20;;;;;;5056684;28;20025;-77
2021/09/23 07:30:52;;;;;;;0.00;0.00;;;13.40;71.00;;;;;;5058373;28;20047;-79
2021/09/23 07:33:18;;;;;;;0.00;0.00;;;13.30;70.70;;;;;;5064216;28;20040;-79
2021/09/23 07:35:44;;;;;;;0.00;0.00;;;13.30;70.60;;;;;;5055972;28;20025;-82
2021/09/23 07:38:09;;;;;;;0.00;0.00;;;13.30;70.40;;;;;;5049375;28;20059;-77
2021/09/23 07:40:36;;;;;;;0.00;0.00;;;13.30;70.60;;;;;;5053204;28;20021;-80
2021/09/23 07:43:02;;;;;;;0.00;0.00;;;13.30;70.60;;;;;;5056979;28;20467;-77
2021/09/23 07:45:28;;;;;;;0.00;0.00;;;13.40;70.30;;;;;;5056538;28;20366;-76
2021/09/23 07:47:55;;;;;;;0.00;0.00;;;13.50;70.10;;;;;;5056100;28;20025;-78
2021/09/23 07:50:20;;;;;;;0.00;0.00;;;13.60;69.70;;;;;;5056556;28;20017;-77
2021/09/23 07:52:46;;;;;;;0.00;0.00;;;13.80;69.60;;;;;;5056717;28;20379;-77
2021/09/23 07:55:12;;;;;;;0.00;0.00;;;14.00;69.40;;;;;;5055938;28;20044;-76
2021/09/23 07:57:39;;;;;;;0.00;0.00;;;14.30;68.90;;;;;;5038854;28;20028;-75
2021/09/23 08:00:06;;;;;;;0.00;0.00;;;14.50;68.30;;;;;;5055783;28;20021;-76
2021/09/23 08:02:31;;;;;;;0.00;0.00;;;14.60;67.90;;;;;;5056169;28;20025;-76
2021/09/23 08:04:57;;;;;;;0.00;0.00;;;14.70;67.40;;;;;;5056681;28;20037;-78
2021/09/23 08:07:23;;;;;;;0.00;0.00;;;14.80;67.20;;;;;;5063969;28;20030;-76
2021/09/23 08:09:49;;;;;;;0.00;0.00;;;14.80;66.80;;;;;;5054541;28;20044;-76
2021/09/23 08:12:14;;;;;;;0.00;0.00;;;14.80;66.60;;;;;;5059307;28;20032;-77
2021/09/23 08:14:41;;;;;;;0.00;0.00;;;14.90;66.70;;;;;;5056507;28;20095;-76
2021/09/23 08:17:06;;;;;;;0.00;0.00;;;14.90;66.30;;;;;;5055723;28;20025;-76
2021/09/23 08:19:36;;;;;;;0.00;0.00;;;14.90;66.00;;;;;;5055401;28;20100;-78
2021/09/23 08:22:06;;;;;;;0.00;0.00;;;14.90;65.90;;;;;;5057813;28;20029;-77
2021/09/23 08:24:34;;;;;;;0.00;0.00;;;14.80;65.70;;;;;;5055353;28;20060;-77
2021/09/23 08:27:00;;;;;;;0.00;0.00;;;14.70;65.80;;;;;;5054154;28;20082;-77
2021/09/23 08:29:26;;;;;;;0.00;0.00;;;14.60;65.80;;;;;;5059663;28;20028;-77
2021/09/23 08:31:52;;;;;;;0.00;0.00;;;14.50;66.00;;;;;;5075263;28;20482;-79
2021/09/23 08:34:18;;;;;;;0.00;0.00;;;14.40;66.20;;;;;;5075592;28;20068;-78
2021/09/23 08:36:45;;;;;;;0.00;0.00;;;14.30;66.50;;;;;;5075670;28;20021;-78
2021/09/23 08:39:11;;;;;;;0.00;0.00;;;14.30;66.70;;;;;;5075064;28;20529;-77
2021/09/23 08:41:37;;;;;;;0.00;0.00;;;14.40;67.00;;;;;;5057099;28;20067;-76
2021/09/23 08:44:03;;;;;;;0.00;0.00;;;14.50;66.50;;;;;;5075640;28;20032;-78
2021/09/23 08:46:33;;;;;;;0.00;0.00;;;14.40;66.00;;;;;;5073484;28;20029;-77
2021/09/23 08:49:01;;;;;;;0.00;0.00;;;14.30;66.10;;;;;;5074943;28;20578;-78
2021/09/23 08:51:30;;;;;;;0.00;0.00;;;14.20;66.20;;;;;;5074713;28;20028;-77
2021/09/23 08:53:56;;;;;;;0.00;0.00;;;14.20;66.30;;;;;;5056947;28;20036;-76
2021/09/23 08:56:23;;;;;;;0.00;0.00;;;14.30;66.60;;;;;;5075226;28;20025;-77
2021/09/23 08:58:50;;;;;;;0.00;0.00;;;14.20;66.20;;;;;;5057282;28;20040;-77
2021/09/23 09:01:18;;;;;;;0.00;0.00;;;14.10;66.40;;;;;;5074300;28;20472;-77
2021/09/23 09:03:45;;;;;;;0.00;0.00;;;14.10;66.60;;;;;;5074448;28;20032;-78
2021/09/23 09:06:13;;;;;;;0.00;0.00;;;14.10;66.70;;;;;;5056744;28;20032;-76
2021/09/23 09:08:41;;;;;;;0.00;0.00;;;14.10;66.80;;;;;;5074390;28;20034;-78
2021/09/23 09:11:10;;;;;;;0.00;0.00;;;14.10;66.90;;;;;;5074838;28;20035;-77
2021/09/23 09:13:38;;;;;;;0.00;0.00;;;14.00;66.90;;;;;;5074299;28;20035;-77
2021/09/23 09:16:14;;;;;;;0.00;0.00;;;13.90;67.30;;;;;;5074304;28;20100;-78
2021/09/23 09:18:41;;;;;;;0.00;0.00;;;13.80;67.70;;;;;;5074701;28;20016;-77
2021/09/23 09:21:12;;;;;;;0.00;0.00;;;13.80;68.20;;;;;;5072464;28;20025;-77
2021/09/23 09:23:40;;;;;;;0.00;0.00;;;13.90;68.30;;;;;;5054795;28;20052;-78
2021/09/23 09:26:08;;;;;;;0.00;0.00;;;14.00;68.20;;;;;;5054586;28;20033;-76
2021/09/23 09:28:46;;;;;;;0.00;0.00;;;14.00;67.90;;;;;;5043211;28;20083;-78
2021/09/23 09:31:12;;;;;;;0.00;0.00;;;14.00;68.80;;;;;;5036557;28;20083;-77
2021/09/23 09:33:39;;;;;;;0.00;0.00;;;14.00;68.30;;;;;;5036533;28;20029;-77
2021/09/23 09:36:27;;;;;;;0.00;0.00;;;14.10;68.10;;;;;;5048685;28;20053;-77
2021/09/23 09:38:54;;;;;;;0.00;0.00;;;14.00;68.00;;;;;;5054366;28;20025;-76
2021/09/23 09:41:26;;;;;;;0.00;0.00;;;13.90;68.20;;;;;;5053060;28;20021;-77
2021/09/23 09:43:53;;;;;;;0.00;0.00;;;13.90;68.50;;;;;;5052644;28;20497;-76
2021/09/23 09:46:24;;;;;;;0.00;0.00;;;13.80;68.70;;;;;;5036215;28;20078;-77
2021/09/23 09:48:52;;;;;;;0.00;0.00;;;13.60;69.00;;;;;;5053234;28;20108;-77
2021/09/23 09:51:33;;;;;;;0.00;0.00;;;13.50;69.60;;;;;;5053052;28;20032;-78
2021/09/23 09:54:00;;;;;;;0.00;0.00;;;13.50;70.00;;;;;;5052787;28;20419;-77
2021/09/23 09:56:26;;;;;;;0.00;0.00;;;13.50;70.10;;;;;;5053475;28;20029;-77
2021/09/23 09:59:12;;;;;;;0.00;0.00;;;13.50;70.20;;;;;;5053924;28;20021;-77
2021/09/23 10:01:40;;;;;;;0.00;0.00;;;13.60;70.40;;;;;;5054147;28;20342;-77
2021/09/23 10:04:06;;;;;;;0.00;0.00;;;13.70;70.10;;;;;;5053923;28;20068;-77
2021/09/23 10:06:33;;;;;;;0.00;0.00;;;13.70;69.80;;;;;;5035815;28;20056;-76
2021/09/23 10:08:58;;;;;;;0.00;0.00;;;13.70;69.90;;;;;;5053312;28;20037;-77
2021/09/23 10:11:25;;;;;;;0.00;0.00;;;13.70;69.70;;;;;;5053459;28;20363;-77
2021/09/23 10:13:52;;;;;;;0.00;0.00;;;13.70;69.80;;;;;;5053402;28;20057;-77
2021/09/23 10:16:19;;;;;;;0.00;0.00;;;13.70;69.70;;;;;;5053392;28;20028;-77
2021/09/23 10:18:46;;;;;;;0.00;0.00;;;13.60;69.60;;;;;;5052963;28;20423;-76
2021/09/23 10:21:11;;;;;;;0.00;0.00;;;13.40;69.60;;;;;;5053734;28;20048;-79
2021/09/23 10:23:41;;;;;;;0.00;0.00;;;13.30;69.90;;;;;;5053343;28;20057;-78
2021/09/23 10:26:14;;;;;;;0.00;0.00;;;13.30;70.30;;;;;;5053826;28;20079;-77
2021/09/23 10:28:45;;;;;;;0.00;0.00;;;13.30;70.40;;;;;;5049134;28;20029;-78
2021/09/23 10:31:21;;;;;;;0.00;0.00;;;13.40;70.40;;;;;;5052245;28;20045;-77
2021/09/23 10:33:48;;;;;;;0.00;0.00;;;13.60;70.10;;;;;;5035987;28;20452;-77
2021/09/23 10:36:16;;;;;;;0.00;0.00;;;13.70;69.60;;;;;;5053205;28;20028;-77
2021/09/23 10:38:44;;;;;;;0.00;0.00;;;13.60;69.40;;;;;;5052937;28;20024;-76
2021/09/23 10:41:13;;;;;;;0.00;0.00;;;13.80;69.50;;;;;;5052800;28;20473;-76
2021/09/23 10:43:41;;;;;;;0.00;0.00;;;13.90;68.90;;;;;;5052757;28;20040;-77
2021/09/23 10:46:09;;;;;;;0.00;0.00;;;14.00;68.60;;;;;;5035355;28;20049;-76
2021/09/23 10:48:36;;;;;;;0.00;0.00;;;14.00;68.50;;;;;;5051475;28;20152;-78
2021/09/23 10:51:03;;;;;;;0.00;0.00;;;14.10;68.30;;;;;;5052952;28;20528;-77
2021/09/23 10:53:34;;;;;;;0.00;0.00;;;14.20;68.30;;;;;;5056645;28;20029;-78
2021/09/23 10:56:08;;;;;;;0.00;0.00;;;14.40;68.10;;;;;;5056701;28;20035;-78
2021/09/23 10:58:35;;;;;;;0.00;0.00;;;14.70;67.90;;;;;;5056805;28;20086;-77
2021/09/23 11:01:03;;;;;;;0.00;0.00;;;15.00;67.60;;;;;;5056866;28;20036;-78
2021/09/23 11:03:49;;;;;;;0.00;0.00;;;15.30;66.60;;;;;;5057036;28;20094;-77
2021/09/23 11:06:15;;;;;;;0.00;0.00;;;15.60;65.70;;;;;;5056856;28;20381;-76
2021/09/23 11:08:44;;;;;;;0.00;0.00;;;15.90;65.30;;;;;;5056725;28;20029;-77
2021/09/23 11:11:11;;;;;;;0.00;0.00;;;16.10;64.60;;;;;;5035635;28;20041;-77
2021/09/23 11:13:38;;;;;;;0.00;0.00;;;16.30;64.00;;;;;;5036839;28;20407;-77
2021/09/23 11:16:09;;;;;;;0.00;0.00;;;16.50;63.00;;;;;;5037065;28;20029;-78
2021/09/23 11:18:36;;;;;;;0.00;0.00;;;16.60;62.40;;;;;;5037311;28;20188;-76
2021/09/23 11:21:04;;;;;;;0.00;0.00;;;16.50;61.90;;;;;;5036785;28;20033;-76
2021/09/23 11:23:34;;;;;;;0.00;0.00;;;16.50;61.50;;;;;;5045645;28;20380;-78
2021/09/23 11:26:01;;;;;;;0.00;0.00;;;16.30;61.50;;;;;;5039158;28;20144;-76
2021/09/23 11:28:28;;;;;;;0.00;0.00;;;16.20;61.60;;;;;;5056988;28;20025;-77
2021/09/23 11:30:54;;;;;;;0.00;0.00;;;16.10;61.90;;;;;;5056635;28;20023;-76
2021/09/23 11:33:22;;;;;;;0.00;0.00;;;16.10;62.00;;;;;;5056693;28;20108;-76
2021/09/23 11:35:48;;;;;;;0.00;0.00;;;16.10;62.00;;;;;;5055360;28;20035;-77
2021/09/23 11:38:19;;;;;;;0.00;0.00;;;16.20;61.90;;;;;;5038764;28;20052;-77
2021/09/23 11:40:46;;;;;;;0.00;0.00;;;16.40;61.60;;;;;;5036402;28;20043;-77
2021/09/23 11:43:14;;;;;;;0.00;0.00;;;16.80;61.30;;;;;;5056079;28;20032;-79
2021/09/23 11:45:46;;;;;;;0.00;0.00;;;17.30;60.70;;;;;;5055722;28;20397;-78
2021/09/23 11:48:19;;;;;;;0.00;0.00;;;17.70;59.30;;;;;;5038073;28;20025;-79
2021/09/23 11:50:46;;;;;;;0.00;0.00;;;17.80;58.30;;;;;;5035578;28;20545;-78
2021/09/23 11:53:25;;;;;;;0.00;0.00;;;17.80;57.90;;;;;;5034237;28;20378;-79
2021/09/23 11:56:13;;;;;;;0.00;0.00;;;17.60;57.80;;;;;;5036219;28;20086;-79
2021/09/23 11:58:44;;;;;;;0.00;0.00;;;17.30;58.10;;;;;;5035411;28;20034;-79
2021/09/23 12:01:09;;;;;;;0.00;0.00;;;17.10;58.50;;;;;;5035111;28;20025;-79
2021/09/23 12:03:41;;;;;;;0.00;0.00;;;16.90;58.90;;;;;;5033721;28;20432;-78
2021/09/23 12:06:12;;;;;;;0.00;0.00;;;16.60;58.90;;;;;;5034956;28;20022;-77
2021/09/23 12:08:38;;;;;;;0.00;0.00;;;16.20;59.50;;;;;;5035854;28;20017;-78
2021/09/23 12:11:09;;;;;;;0.00;0.00;;;15.90;60.10;;;;;;5035799;28;20053;-77
2021/09/23 12:13:44;;;;;;;0.00;0.00;;;15.70;60.50;;;;;;5036310;28;20079;-78
2021/09/23 12:16:13;;;;;;;0.00;0.00;;;15.60;60.60;;;;;;5034854;28;20075;-78
2021/09/23 12:18:40;;;;;;;0.00;0.00;;;15.30;60.80;;;;;;5048650;28;20040;-77
2021/09/23 12:21:12;;;;;;;0.00;0.00;;;15.10;61.40;;;;;;5056116;28;20066;-79
2021/09/23 12:23:39;;;;;;;0.00;0.00;;;15.00;62.00;;;;;;5055280;28;20040;-76
2021/09/23 12:26:15;;;;;;;0.00;0.00;;;14.80;62.20;;;;;;5055279;28;20033;-78
2021/09/23 12:29:01;;;;;;;0.00;0.00;;;14.70;62.70;;;;;;5055089;28;20082;-77
2021/09/23 12:31:29;;;;;;;0.00;0.00;;;14.60;63.00;;;;;;5027238;28;20053;-80
2021/09/23 12:33:58;;;;;;;0.00;0.00;;;14.50;63.10;;;;;;5035631;28;20416;-78
2021/09/23 12:36:52;;;;;;;0.00;0.00;;;14.40;63.40;;;;;;5043133;28;20028;-77
2021/09/23 12:39:25;;;;;;;0.00;0.00;;;14.30;64.00;;;;;;5047523;28;20105;-78
2021/09/23 12:41:53;;;;;;;0.00;0.00;;;14.30;64.00;;;;;;5055790;28;20066;-77
2021/09/23 12:44:24;;;;;;;0.00;0.00;;;14.30;64.30;;;;;;5054863;28;20076;-78
2021/09/23 12:47:15;;;;;;;0.00;0.00;;;14.40;64.60;;;;;;5033764;28;20041;-77
2021/09/23 12:49:43;;;;;;;0.00;0.00;;;14.40;64.40;;;;;;5028464;28;20547;-78
2021/09/23 12:52:19;;;;;;;0.00;0.00;;;14.50;64.40;;;;;;5034956;28;20474;-77
2021/09/23 12:54:53;;;;;;;0.00;0.00;;;14.50;64.20;;;;;;5040840;28;20075;-77